TimeHST,TemperatureF,Dew PointF,Humidity,Sea Level PressureIn,VisibilityMPH,Wind Direction,Wind SpeedMPH,Gust SpeedMPH,PrecipitationIn,Events,Conditions,WindDirDegrees,DateUTC
12:57 AM,71.6,60.1,67,30.20,10.0,ENE,10.4,20.7,N/A,,Mostly Cloudy,60,2013-02-12 10:57:00
1:57 AM,71.6,60.1,67,30.19,10.0,ENE,10.4,18.4,N/A,,Clear,60,2013-02-12 11:57:00
2:57 AM,71.6,59.0,64,30.17,10.0,NE,11.5,19.6,N/A,,Scattered Clouds,50,2013-02-12 12:57:00
3:57 AM,69.8,57.0,64,30.17,10.0,NE,11.5,18.4,N/A,,Scattered Clouds,50,2013-02-12 13:57:00
4:57 AM,69.8,54.0,57,30.17,10.0,ENE,10.4,18.4,N/A,,Mostly Cloudy,60,2013-02-12 14:57:00
5:57 AM,69.8,57.9,66,30.17,10.0,ENE,13.8,20.7,N/A,,Overcast,60,2013-02-12 15:57:00
7:57 AM,71.6,61.0,69,30.19,10.0,ENE,9.2,16.1,N/A,,Mostly Cloudy,60,2013-02-12 17:57:00
8:57 AM,73.4,60.1,63,30.20,10.0,ENE,12.7,19.6,N/A,,Overcast,60,2013-02-12 18:57:00
9:57 AM,76.3,60.1,57,30.20,10.0,ENE,11.5,17.3,N/A,,Mostly Cloudy,60,2013-02-12 19:57:00
10:57 AM,77.0,59.0,54,30.20,10.0,NE,10.4,-,N/A,,Mostly Cloudy,50,2013-02-12 20:57:00
11:57 AM,77.0,61.0,58,30.18,10.0,NE,11.5,-,N/A,,Partly Cloudy,50,2013-02-12 21:57:00
12:57 PM,78.1,60.1,54,30.16,10.0,NE,11.5,18.4,N/A,,Mostly Cloudy,50,2013-02-12 22:57:00
1:57 PM,79.5,62.1,55,30.14,10.0,NE,12.7,19.6,N/A,,Mostly Cloudy,40,2013-02-12 23:57:00
2:57 PM,78.8,62.1,56,30.13,10.0,NNE,11.5,20.7,0.00,Rain,Light Rain,30,2013-02-13 00:57:00
3:57 PM,78.8,62.1,56,30.12,10.0,ENE,12.7,18.4,0.00,,Overcast,60,2013-02-13 01:57:00
4:57 PM,78.8,61.0,54,30.11,10.0,NE,8.1,-,0.00,,Overcast,50,2013-02-13 02:57:00
5:57 PM,75.2,61.0,61,30.12,10.0,ENE,6.9,-,0.00,,Overcast,60,2013-02-13 03:57:00
6:45 PM,75.2,60.8,61,30.14,6.2,NE,12.7,18.4,N/A,,Mostly Cloudy,50,2013-02-13 04:45:00
6:57 PM,75.2,61.0,61,30.13,10.0,NE,11.5,20.7,N/A,,Mostly Cloudy,50,2013-02-13 04:57:00
7:04 PM,73.4,60.8,65,30.14,6.2,NE,12.7,18.4,N/A,,Overcast,50,2013-02-13 05:04:00
7:57 PM,73.4,60.1,63,30.14,10.0,ENE,11.5,19.6,N/A,,Overcast,60,2013-02-13 05:57:00
8:57 PM,73.4,57.9,58,30.15,10.0,NE,10.4,19.6,N/A,,Overcast,50,2013-02-13 06:57:00
9:57 PM,73.4,55.9,54,30.16,10.0,ENE,8.1,19.6,N/A,,Overcast,60,2013-02-13 07:57:00
10:11 PM,71.6,55.4,57,30.17,6.2,NE,12.7,20.7,N/A,,Mostly Cloudy,50,2013-02-13 08:11:00
10:57 PM,71.6,55.0,56,30.16,10.0,NE,9.2,-,N/A,,Mostly Cloudy,50,2013-02-13 08:57:00
11:57 PM,71.6,54.0,54,30.16,10.0,ENE,6.9,-,N/A,,Overcast,70,2013-02-13 09:57:00